Winter Garden, FL (34787)

6:17 PM EDT on July 23, 2016 (GMT -0400)
Stonecrest | | Change Station

Elev 128 ft 28.53 °N, 81.58 °W | Updated 2 minutes ago

Partly Cloudy
Partly Cloudy
90.9 °F
Feels Like 97 °F
N
5.4
Wind Variable Wind from South
Gusts 6.0 mph

Today
High -- | Low -- °F
--% Chance of Precip.
Yesterday
High -- | Low -- °F
Precip. -- in
Pressure 29.99 in
Visibility 10.0 miles
Clouds Few 5500 ft
Heat Index 97 °F
Dew Point 71 °F
Humidity 52%
Rainfall 0.14 in
Snow Depth Not available.
6:43 AM 8:22 PM
Waning Gibbous, 82% visible
METAR KORL 232153Z VRB03KT 10SM FEW055 33/21 A2998 RMK AO2 LTG DSNT SE SLP154 T03330211
Pressure 29.99 in
Visibility 10.0 miles
Clouds Few 5500 ft
Heat Index 97 °F
Dew Point 71 °F
Humidity 52%
Rainfall 0.14 in
Snow Depth Not available.
6:43 AM 8:22 PM
Waning Gibbous, 82% visible
METAR KORL 232153Z VRB03KT 10SM FEW055 33/21 A2998 RMK AO2 LTG DSNT SE SLP154 T03330211

10-Day Weather Forecast

Almanac

Astronomy

Jul. 23, 2016 Rise Set
Actual Time
Civil Twilight
Nautical Twilight
Astronomical Twilight
Moon
Length of Visible Light
Length of Day
Tomorrow will be .
, % of the Moon is Illuminated

Today's Extremes

State Highs State Lows

Community

WunderPhotos

Upload Photos

1,926,940 photos uploaded!

WunderBlog® & News

Nearby

Air Quality

  Air Quality AQ Index Pollutant
Not available.

Snow Depth

Station Depth Elevation

Earthquake Activity

City Distance Mag. Time & Date
Minimum magnitude displayed is 2.5.

Coastal Water Temperatures

Place Temperature

Stations

Nearby Weather Stations

Station Location Temp. Windchill Dew Point Humidity Wind Precip. Elev Updated Type
                   

Watches & Warnings

There are currently no watches in effect.